Main page
METAR-TAF:

METAR-TAF

Airports :

Augsburg Airport

Augsburg, Germany

latitude: 48-26N, longitude: 010-56E, elevation: 461 m

Current weather observation

The report was made 19 minutes ago, at 07:20 UTC
Wind 6 kt from the East
Temperature 12°C
Humidity 54%
Pressure 1027 hPa
Visibility 10 km or more
no clouds below 1500 m and no cumulonimbus

METAR: EDMA 190720Z 08006KT CAVOK 12/03 Q1027

Time: 09:39 (07:39 UTC)

Forecast

The report was made 1 hour and 24 minutes ago, at 06:15 UTC
Forecast valid from 19 at 07 UTC to 19 at 15 UTC
Wind 5 kt from the East/Northeast
Visibility 10 km or more
no clouds below 1500 m and no cumulonimbus
Becoming
from 19 at 10 UTC to 19 at 12 UTC
Wind 10 kt from the East

TAF: EDMA 190615Z 1907/1915 06005KT CAVOK BECMG 1910/1912 08010KT

Weather observations and forecasts of more than 4000 airports (METAR and TAF reports).

The available stations are represented by yellow and red dots on the map.

Hover mouse over dot to see the name of the station.

Then click to see weather observations and forecasts.

To change the map : click on the green buttons with a black cross to zoom in, on the green button with a dash to zoom out, or on the green arrows for adjacent maps.


METAR-TAF: